sensor_id;sensor_type;location;lat;lon;timestamp;P1;durP1;ratioP1;P2;durP2;ratioP2
11024;SDS011;22890;51.820;8.682;2022-09-17T00:01:02;5.10;;;1.80;;
11024;SDS011;22890;51.820;8.682;2022-09-17T00:03:29;5.10;;;1.90;;
11024;SDS011;22890;51.820;8.682;2022-09-17T00:06:02;1.67;;;1.30;;
11024;SDS011;22890;51.820;8.682;2022-09-17T00:08:31;5.40;;;1.80;;
11024;SDS011;22890;51.820;8.682;2022-09-17T00:11:06;3.23;;;1.37;;
11024;SDS011;22890;51.820;8.682;2022-09-17T00:13:41;4.63;;;1.73;;
11024;SDS011;22890;51.820;8.682;2022-09-17T00:16:10;3.33;;;1.70;;
11024;SDS011;22890;51.820;8.682;2022-09-17T00:18:37;3.90;;;1.80;;
11024;SDS011;22890;51.820;8.682;2022-09-17T00:21:07;6.00;;;2.17;;
11024;SDS011;22890;51.820;8.682;2022-09-17T00:23:42;3.90;;;2.50;;
11024;SDS011;22890;51.820;8.682;2022-09-17T00:26:09;4.00;;;2.00;;
11024;SDS011;22890;51.820;8.682;2022-09-17T00:28:36;4.00;;;1.60;;
11024;SDS011;22890;51.820;8.682;2022-09-17T00:31:08;3.73;;;1.70;;
11024;SDS011;22890;51.820;8.682;2022-09-17T00:33:35;4.30;;;1.70;;
11024;SDS011;22890;51.820;8.682;2022-09-17T00:36:02;4.37;;;2.20;;
11024;SDS011;22890;51.820;8.682;2022-09-17T00:38:31;3.00;;;1.63;;
11024;SDS011;22890;51.820;8.682;2022-09-17T00:40:58;7.03;;;2.10;;
11024;SDS011;22890;51.820;8.682;2022-09-17T00:46:01;5.83;;;1.83;;
11024;SDS011;22890;51.820;8.682;2022-09-17T00:48:29;8.53;;;2.47;;
11024;SDS011;22890;51.820;8.682;2022-09-17T00:50:56;4.47;;;1.87;;
11024;SDS011;22890;51.820;8.682;2022-09-17T00:53:26;6.03;;;2.43;;
11024;SDS011;22890;51.820;8.682;2022-09-17T00:55:58;3.60;;;1.40;;
11024;SDS011;22890;51.820;8.682;2022-09-17T00:58:29;6.97;;;2.40;;
11024;SDS011;22890;51.820;8.682;2022-09-17T01:01:04;5.40;;;1.93;;
11024;SDS011;22890;51.820;8.682;2022-09-17T01:03:31;3.43;;;1.70;;
11024;SDS011;22890;51.820;8.682;2022-09-17T01:06:07;9.70;;;2.47;;
11024;SDS011;22890;51.820;8.682;2022-09-17T01:11:30;9.10;;;2.17;;
11024;SDS011;22890;51.820;8.682;2022-09-17T01:17:14;9.20;;;2.00;;
11024;SDS011;22890;51.820;8.682;2022-09-17T01:32:15;6.63;;;2.30;;
11024;SDS011;22890;51.820;8.682;2022-09-17T01:35:04;6.90;;;2.13;;
11024;SDS011;22890;51.820;8.682;2022-09-17T01:40:26;7.50;;;2.37;;
11024;SDS011;22890;51.820;8.682;2022-09-17T01:43:10;8.47;;;2.30;;
11024;SDS011;22890;51.820;8.682;2022-09-17T01:45:50;10.73;;;2.33;;
11024;SDS011;22890;51.820;8.682;2022-09-17T01:48:24;6.20;;;2.70;;
11024;SDS011;22890;51.820;8.682;2022-09-17T01:51:04;9.00;;;1.70;;
11024;SDS011;22890;51.820;8.682;2022-09-17T01:53:58;7.13;;;2.20;;
11024;SDS011;22890;51.820;8.682;2022-09-17T01:56:27;7.73;;;2.47;;
11024;SDS011;22890;51.820;8.682;2022-09-17T01:59:18;8.33;;;2.00;;
11024;SDS011;22890;51.820;8.682;2022-09-17T02:02:07;10.07;;;2.13;;
11024;SDS011;22890;51.820;8.682;2022-09-17T02:04:43;4.40;;;1.60;;
11024;SDS011;22890;51.820;8.682;2022-09-17T02:07:17;16.40;;;3.03;;
11024;SDS011;22890;51.820;8.682;2022-09-17T02:09:56;10.33;;;2.17;;
11024;SDS011;22890;51.820;8.682;2022-09-17T02:12:30;10.40;;;2.10;;
11024;SDS011;22890;51.820;8.682;2022-09-17T02:15:02;12.00;;;2.53;;
11024;SDS011;22890;51.820;8.682;2022-09-17T02:17:47;8.17;;;2.33;;
11024;SDS011;22890;51.820;8.682;2022-09-17T02:20:17;7.07;;;2.43;;
11024;SDS011;22890;51.820;8.682;2022-09-17T02:22:49;6.37;;;2.13;;
11024;SDS011;22890;51.820;8.682;2022-09-17T02:25:25;10.23;;;2.70;;
11024;SDS011;22890;51.820;8.682;2022-09-17T02:28:02;11.27;;;2.43;;
11024;SDS011;22890;51.820;8.682;2022-09-17T02:30:33;9.67;;;2.73;;
11024;SDS011;22890;51.820;8.682;2022-09-17T02:33:00;11.77;;;3.23;;
11024;SDS011;22890;51.820;8.682;2022-09-17T02:35:30;19.20;;;4.20;;
11024;SDS011;22890;51.820;8.682;2022-09-17T02:37:57;11.60;;;3.80;;
11024;SDS011;22890;51.820;8.682;2022-09-17T02:40:24;8.27;;;3.20;;
11024;SDS011;22890;51.820;8.682;2022-09-17T02:42:59;13.67;;;3.33;;
11024;SDS011;22890;51.820;8.682;2022-09-17T02:57:00;10.17;;;3.50;;
11024;SDS011;22890;51.820;8.682;2022-09-17T03:02:50;13.43;;;3.33;;
11024;SDS011;22890;51.820;8.682;2022-09-17T03:05:21;7.27;;;2.40;;
11024;SDS011;22890;51.820;8.682;2022-09-17T03:07:49;9.33;;;2.63;;
11024;SDS011;22890;51.820;8.682;2022-09-17T03:10:16;8.67;;;2.00;;
11024;SDS011;22890;51.820;8.682;2022-09-17T03:12:43;12.43;;;2.43;;
11024;SDS011;22890;51.820;8.682;2022-09-17T03:15:10;11.00;;;2.60;;
11024;SDS011;22890;51.820;8.682;2022-09-17T03:17:36;10.67;;;2.10;;
11024;SDS011;22890;51.820;8.682;2022-09-17T03:20:03;8.13;;;2.43;;
11024;SDS011;22890;51.820;8.682;2022-09-17T03:22:30;13.57;;;2.57;;
11024;SDS011;22890;51.820;8.682;2022-09-17T03:24:58;10.20;;;2.13;;
11024;SDS011;22890;51.820;8.682;2022-09-17T03:27:24;12.63;;;2.83;;
11024;SDS011;22890;51.820;8.682;2022-09-17T03:29:51;9.03;;;1.87;;
11024;SDS011;22890;51.820;8.682;2022-09-17T03:32:17;9.67;;;2.70;;
11024;SDS011;22890;51.820;8.682;2022-09-17T03:34:44;5.90;;;2.60;;
11024;SDS011;22890;51.820;8.682;2022-09-17T03:37:12;12.97;;;2.43;;
11024;SDS011;22890;51.820;8.682;2022-09-17T03:39:38;10.70;;;2.20;;
11024;SDS011;22890;51.820;8.682;2022-09-17T03:42:05;7.53;;;2.47;;
11024;SDS011;22890;51.820;8.682;2022-09-17T03:44:32;8.03;;;2.23;;
11024;SDS011;22890;51.820;8.682;2022-09-17T03:46:58;10.10;;;2.33;;
11024;SDS011;22890;51.820;8.682;2022-09-17T03:49:25;13.57;;;2.53;;
11024;SDS011;22890;51.820;8.682;2022-09-17T03:51:51;7.90;;;2.47;;
11024;SDS011;22890;51.820;8.682;2022-09-17T03:54:18;9.97;;;2.90;;
11024;SDS011;22890;51.820;8.682;2022-09-17T03:56:45;13.07;;;2.77;;
11024;SDS011;22890;51.820;8.682;2022-09-17T03:59:11;11.77;;;3.00;;
11024;SDS011;22890;51.820;8.682;2022-09-17T04:01:38;9.97;;;3.37;;
11024;SDS011;22890;51.820;8.682;2022-09-17T04:04:05;6.00;;;2.60;;
11024;SDS011;22890;51.820;8.682;2022-09-17T04:06:31;11.50;;;3.73;;
11024;SDS011;22890;51.820;8.682;2022-09-17T04:08:58;11.53;;;3.50;;
11024;SDS011;22890;51.820;8.682;2022-09-17T04:11:26;7.80;;;3.10;;
11024;SDS011;22890;51.820;8.682;2022-09-17T04:13:52;11.90;;;2.80;;
11024;SDS011;22890;51.820;8.682;2022-09-17T04:16:19;10.17;;;4.03;;
11024;SDS011;22890;51.820;8.682;2022-09-17T04:18:46;13.30;;;3.87;;
11024;SDS011;22890;51.820;8.682;2022-09-17T04:21:12;11.07;;;3.63;;
11024;SDS011;22890;51.820;8.682;2022-09-17T04:23:39;16.67;;;4.73;;
11024;SDS011;22890;51.820;8.682;2022-09-17T04:26:05;15.63;;;4.17;;
11024;SDS011;22890;51.820;8.682;2022-09-17T04:28:32;11.53;;;3.67;;
11024;SDS011;22890;51.820;8.682;2022-09-17T04:30:58;10.47;;;4.33;;
11024;SDS011;22890;51.820;8.682;2022-09-17T04:33:25;13.57;;;4.13;;
11024;SDS011;22890;51.820;8.682;2022-09-17T04:35:52;17.67;;;4.90;;
11024;SDS011;22890;51.820;8.682;2022-09-17T04:38:19;11.60;;;3.63;;
11024;SDS011;22890;51.820;8.682;2022-09-17T04:40:47;16.67;;;4.80;;
11024;SDS011;22890;51.820;8.682;2022-09-17T04:43:13;9.33;;;3.77;;
11024;SDS011;22890;51.820;8.682;2022-09-17T04:45:40;9.93;;;3.80;;
11024;SDS011;22890;51.820;8.682;2022-09-17T04:48:09;13.83;;;4.20;;
11024;SDS011;22890;51.820;8.682;2022-09-17T04:50:36;13.00;;;4.57;;
11024;SDS011;22890;51.820;8.682;2022-09-17T04:53:03;8.47;;;3.23;;
11024;SDS011;22890;51.820;8.682;2022-09-17T04:55:29;9.27;;;3.73;;
11024;SDS011;22890;51.820;8.682;2022-09-17T04:57:56;15.50;;;4.50;;
11024;SDS011;22890;51.820;8.682;2022-09-17T05:00:23;12.90;;;3.70;;
11024;SDS011;22890;51.820;8.682;2022-09-17T05:02:51;16.73;;;3.60;;
11024;SDS011;22890;51.820;8.682;2022-09-17T05:05:19;15.57;;;4.20;;
11024;SDS011;22890;51.820;8.682;2022-09-17T05:07:46;12.33;;;3.87;;
11024;SDS011;22890;51.820;8.682;2022-09-17T05:10:14;8.87;;;3.43;;
11024;SDS011;22890;51.820;8.682;2022-09-17T05:12:52;14.13;;;4.10;;
11024;SDS011;22890;51.820;8.682;2022-09-17T05:15:20;14.30;;;3.70;;
11024;SDS011;22890;51.820;8.682;2022-09-17T05:17:48;14.03;;;4.43;;
11024;SDS011;22890;51.820;8.682;2022-09-17T05:20:15;13.60;;;4.53;;
11024;SDS011;22890;51.820;8.682;2022-09-17T05:22:46;14.30;;;4.53;;
11024;SDS011;22890;51.820;8.682;2022-09-17T05:25:15;16.50;;;4.60;;
11024;SDS011;22890;51.820;8.682;2022-09-17T05:27:44;9.23;;;4.03;;
11024;SDS011;22890;51.820;8.682;2022-09-17T05:30:11;8.47;;;3.30;;
11024;SDS011;22890;51.820;8.682;2022-09-17T05:32:38;11.03;;;4.20;;
11024;SDS011;22890;51.820;8.682;2022-09-17T05:35:06;11.23;;;4.00;;
11024;SDS011;22890;51.820;8.682;2022-09-17T05:37:33;11.17;;;3.80;;
11024;SDS011;22890;51.820;8.682;2022-09-17T05:40:01;10.10;;;4.13;;
11024;SDS011;22890;51.820;8.682;2022-09-17T05:42:29;13.13;;;4.10;;
11024;SDS011;22890;51.820;8.682;2022-09-17T05:44:55;17.10;;;3.63;;
11024;SDS011;22890;51.820;8.682;2022-09-17T05:47:23;13.37;;;2.77;;
11024;SDS011;22890;51.820;8.682;2022-09-17T05:49:52;11.53;;;2.73;;
11024;SDS011;22890;51.820;8.682;2022-09-17T05:52:18;19.93;;;3.80;;
11024;SDS011;22890;51.820;8.682;2022-09-17T05:54:45;9.10;;;3.07;;
11024;SDS011;22890;51.820;8.682;2022-09-17T05:57:12;6.90;;;2.40;;
11024;SDS011;22890;51.820;8.682;2022-09-17T05:59:40;14.97;;;3.10;;
11024;SDS011;22890;51.820;8.682;2022-09-17T06:02:08;8.90;;;2.67;;
11024;SDS011;22890;51.820;8.682;2022-09-17T06:04:38;14.60;;;2.97;;
11024;SDS011;22890;51.820;8.682;2022-09-17T06:07:05;14.50;;;3.60;;
11024;SDS011;22890;51.820;8.682;2022-09-17T06:09:34;9.93;;;3.40;;
11024;SDS011;22890;51.820;8.682;2022-09-17T06:12:03;14.20;;;4.07;;
11024;SDS011;22890;51.820;8.682;2022-09-17T06:14:30;13.80;;;3.60;;
11024;SDS011;22890;51.820;8.682;2022-09-17T06:16:56;12.20;;;4.17;;
11024;SDS011;22890;51.820;8.682;2022-09-17T06:19:23;10.93;;;4.83;;
11024;SDS011;22890;51.820;8.682;2022-09-17T06:21:50;17.50;;;3.50;;
11024;SDS011;22890;51.820;8.682;2022-09-17T06:24:16;10.23;;;2.60;;
11024;SDS011;22890;51.820;8.682;2022-09-17T06:26:43;11.73;;;2.50;;
11024;SDS011;22890;51.820;8.682;2022-09-17T06:29:10;16.47;;;3.07;;
11024;SDS011;22890;51.820;8.682;2022-09-17T06:31:40;11.53;;;3.73;;
11024;SDS011;22890;51.820;8.682;2022-09-17T06:34:09;11.73;;;4.53;;
11024;SDS011;22890;51.820;8.682;2022-09-17T06:36:36;11.33;;;3.13;;
11024;SDS011;22890;51.820;8.682;2022-09-17T06:39:03;9.67;;;3.00;;
11024;SDS011;22890;51.820;8.682;2022-09-17T06:41:30;7.33;;;2.97;;
11024;SDS011;22890;51.820;8.682;2022-09-17T06:43:57;12.47;;;2.90;;
11024;SDS011;22890;51.820;8.682;2022-09-17T06:46:24;12.13;;;3.33;;
11024;SDS011;22890;51.820;8.682;2022-09-17T06:48:50;11.47;;;3.13;;
11024;SDS011;22890;51.820;8.682;2022-09-17T06:51:17;9.57;;;3.10;;
11024;SDS011;22890;51.820;8.682;2022-09-17T06:53:43;13.60;;;3.33;;
11024;SDS011;22890;51.820;8.682;2022-09-17T06:56:10;7.37;;;3.27;;
11024;SDS011;22890;51.820;8.682;2022-09-17T06:58:37;9.93;;;2.90;;
11024;SDS011;22890;51.820;8.682;2022-09-17T07:01:06;8.50;;;2.60;;
11024;SDS011;22890;51.820;8.682;2022-09-17T07:03:34;11.97;;;2.73;;
11024;SDS011;22890;51.820;8.682;2022-09-17T07:06:00;13.97;;;2.83;;
11024;SDS011;22890;51.820;8.682;2022-09-17T07:08:28;6.97;;;2.07;;
11024;SDS011;22890;51.820;8.682;2022-09-17T07:10:56;11.10;;;2.50;;
11024;SDS011;22890;51.820;8.682;2022-09-17T07:13:24;8.57;;;2.30;;
11024;SDS011;22890;51.820;8.682;2022-09-17T07:15:51;10.47;;;2.00;;
11024;SDS011;22890;51.820;8.682;2022-09-17T07:18:23;8.27;;;1.70;;
11024;SDS011;22890;51.820;8.682;2022-09-17T07:20:57;6.90;;;1.90;;
11024;SDS011;22890;51.820;8.682;2022-09-17T07:23:26;5.90;;;1.60;;
11024;SDS011;22890;51.820;8.682;2022-09-17T07:25:55;8.67;;;2.00;;
11024;SDS011;22890;51.820;8.682;2022-09-17T07:28:23;7.27;;;1.50;;
11024;SDS011;22890;51.820;8.682;2022-09-17T07:30:51;12.20;;;1.90;;
11024;SDS011;22890;51.820;8.682;2022-09-17T07:33:19;5.30;;;1.70;;
11024;SDS011;22890;51.820;8.682;2022-09-17T07:35:51;13.53;;;2.30;;
11024;SDS011;22890;51.820;8.682;2022-09-17T07:38:19;8.70;;;1.50;;
11024;SDS011;22890;51.820;8.682;2022-09-17T07:41:20;11.57;;;1.80;;
11024;SDS011;22890;51.820;8.682;2022-09-17T07:43:40;14.37;;;2.13;;
11024;SDS011;22890;51.820;8.682;2022-09-17T07:46:17;9.07;;;1.57;;
11024;SDS011;22890;51.820;8.682;2022-09-17T07:48:45;10.70;;;1.80;;
11024;SDS011;22890;51.820;8.682;2022-09-17T07:51:19;9.53;;;1.80;;
11024;SDS011;22890;51.820;8.682;2022-09-17T07:53:51;6.33;;;1.47;;
11024;SDS011;22890;51.820;8.682;2022-09-17T07:56:23;7.73;;;2.10;;
11024;SDS011;22890;51.820;8.682;2022-09-17T07:58:50;7.40;;;2.20;;
11024;SDS011;22890;51.820;8.682;2022-09-17T08:01:17;11.10;;;1.67;;
11024;SDS011;22890;51.820;8.682;2022-09-17T08:03:47;6.40;;;2.03;;
11024;SDS011;22890;51.820;8.682;2022-09-17T08:06:22;5.13;;;1.83;;
11024;SDS011;22890;51.820;8.682;2022-09-17T08:13:32;9.53;;;1.83;;
11024;SDS011;22890;51.820;8.682;2022-09-17T08:15:59;9.53;;;1.97;;
11024;SDS011;22890;51.820;8.682;2022-09-17T08:18:31;6.83;;;1.83;;
11024;SDS011;22890;51.820;8.682;2022-09-17T08:20:58;7.17;;;1.60;;
11024;SDS011;22890;51.820;8.682;2022-09-17T08:23:27;10.03;;;2.23;;
11024;SDS011;22890;51.820;8.682;2022-09-17T08:25:56;5.13;;;1.43;;
11024;SDS011;22890;51.820;8.682;2022-09-17T08:28:25;10.20;;;2.30;;
11024;SDS011;22890;51.820;8.682;2022-09-17T08:30:53;4.30;;;1.30;;
11024;SDS011;22890;51.820;8.682;2022-09-17T08:33:24;7.73;;;1.87;;
11024;SDS011;22890;51.820;8.682;2022-09-17T08:35:54;8.53;;;1.90;;
11024;SDS011;22890;51.820;8.682;2022-09-17T08:38:28;8.97;;;2.10;;
11024;SDS011;22890;51.820;8.682;2022-09-17T08:43:50;4.20;;;1.50;;
11024;SDS011;22890;51.820;8.682;2022-09-17T08:46:41;7.60;;;1.73;;
11024;SDS011;22890;51.820;8.682;2022-09-17T08:54:30;10.63;;;1.83;;
11024;SDS011;22890;51.820;8.682;2022-09-17T09:08:03;6.13;;;1.90;;
11024;SDS011;22890;51.820;8.682;2022-09-17T09:10:41;5.80;;;1.50;;
11024;SDS011;22890;51.820;8.682;2022-09-17T09:13:15;13.43;;;2.20;;
11024;SDS011;22890;51.820;8.682;2022-09-17T09:15:46;3.43;;;1.40;;
11024;SDS011;22890;51.820;8.682;2022-09-17T09:18:21;6.40;;;1.30;;
11024;SDS011;22890;51.820;8.682;2022-09-17T09:20:53;5.67;;;1.60;;
11024;SDS011;22890;51.820;8.682;2022-09-17T09:23:54;7.97;;;1.80;;
11024;SDS011;22890;51.820;8.682;2022-09-17T09:26:34;6.10;;;1.77;;
11024;SDS011;22890;51.820;8.682;2022-09-17T09:35:00;7.33;;;1.50;;
11024;SDS011;22890;51.820;8.682;2022-09-17T09:37:37;7.23;;;1.83;;
11024;SDS011;22890;51.820;8.682;2022-09-17T09:45:57;5.07;;;1.70;;
11024;SDS011;22890;51.820;8.682;2022-09-17T10:06:02;3.60;;;1.20;;
11024;SDS011;22890;51.820;8.682;2022-09-17T10:08:35;5.57;;;0.70;;
11024;SDS011;22890;51.820;8.682;2022-09-17T10:13:38;7.57;;;1.23;;
11024;SDS011;22890;51.820;8.682;2022-09-17T10:16:14;3.00;;;1.20;;
11024;SDS011;22890;51.820;8.682;2022-09-17T10:18:43;7.87;;;1.43;;
11024;SDS011;22890;51.820;8.682;2022-09-17T10:21:35;3.10;;;0.93;;
11024;SDS011;22890;51.820;8.682;2022-09-17T10:27:00;2.53;;;0.90;;
11024;SDS011;22890;51.820;8.682;2022-09-17T10:29:30;5.50;;;1.67;;
11024;SDS011;22890;51.820;8.682;2022-09-17T10:31:58;6.47;;;1.17;;
11024;SDS011;22890;51.820;8.682;2022-09-17T10:34:26;5.30;;;0.90;;
11024;SDS011;22890;51.820;8.682;2022-09-17T10:36:54;7.20;;;1.63;;
11024;SDS011;22890;51.820;8.682;2022-09-17T10:41:55;7.57;;;1.20;;
11024;SDS011;22890;51.820;8.682;2022-09-17T10:44:30;8.40;;;1.30;;
11024;SDS011;22890;51.820;8.682;2022-09-17T10:47:12;4.53;;;0.80;;
11024;SDS011;22890;51.820;8.682;2022-09-17T10:49:47;9.27;;;1.47;;
11024;SDS011;22890;51.820;8.682;2022-09-17T10:52:25;5.80;;;1.20;;
11024;SDS011;22890;51.820;8.682;2022-09-17T11:03:46;2.53;;;0.87;;
11024;SDS011;22890;51.820;8.682;2022-09-17T11:12:11;6.00;;;0.90;;
11024;SDS011;22890;51.820;8.682;2022-09-17T11:18:06;4.00;;;0.80;;
11024;SDS011;22890;51.820;8.682;2022-09-17T11:20:57;4.17;;;1.30;;
11024;SDS011;22890;51.820;8.682;2022-09-17T11:23:53;2.60;;;0.87;;
11024;SDS011;22890;51.820;8.682;2022-09-17T11:32:02;2.97;;;1.00;;
11024;SDS011;22890;51.820;8.682;2022-09-17T11:34:38;3.83;;;1.20;;
11024;SDS011;22890;51.820;8.682;2022-09-17T11:39:52;3.60;;;0.73;;
11024;SDS011;22890;51.820;8.682;2022-09-17T11:42:41;2.70;;;0.80;;
11024;SDS011;22890;51.820;8.682;2022-09-17T11:45:18;2.80;;;0.63;;
11024;SDS011;22890;51.820;8.682;2022-09-17T11:47:57;3.37;;;1.23;;
11024;SDS011;22890;51.820;8.682;2022-09-17T11:50:36;2.67;;;0.60;;
11024;SDS011;22890;51.820;8.682;2022-09-17T11:53:20;2.63;;;0.70;;
11024;SDS011;22890;51.820;8.682;2022-09-17T11:55:51;3.17;;;0.90;;
11024;SDS011;22890;51.820;8.682;2022-09-17T11:58:28;1.23;;;0.80;;
11024;SDS011;22890;51.820;8.682;2022-09-17T12:01:06;2.03;;;1.03;;
11024;SDS011;22890;51.820;8.682;2022-09-17T12:03:42;3.57;;;0.80;;
11024;SDS011;22890;51.820;8.682;2022-09-17T12:09:24;4.63;;;1.10;;
11024;SDS011;22890;51.820;8.682;2022-09-17T12:12:00;3.10;;;0.57;;
11024;SDS011;22890;51.820;8.682;2022-09-17T12:15:13;2.50;;;0.63;;
11024;SDS011;22890;51.820;8.682;2022-09-17T12:17:55;2.93;;;0.90;;
11024;SDS011;22890;51.820;8.682;2022-09-17T12:20:57;5.17;;;0.70;;
11024;SDS011;22890;51.820;8.682;2022-09-17T12:28:56;1.37;;;0.70;;
11024;SDS011;22890;51.820;8.682;2022-09-17T12:31:31;5.73;;;0.80;;
11024;SDS011;22890;51.820;8.682;2022-09-17T12:34:12;1.23;;;0.60;;
11024;SDS011;22890;51.820;8.682;2022-09-17T12:39:55;1.23;;;0.77;;
11024;SDS011;22890;51.820;8.682;2022-09-17T12:42:52;1.77;;;1.00;;
11024;SDS011;22890;51.820;8.682;2022-09-17T12:51:19;0.97;;;0.40;;
11024;SDS011;22890;51.820;8.682;2022-09-17T12:54:01;2.00;;;0.70;;
11024;SDS011;22890;51.820;8.682;2022-09-17T12:59:33;2.40;;;0.60;;
11024;SDS011;22890;51.820;8.682;2022-09-17T13:15:59;2.90;;;0.60;;
11024;SDS011;22890;51.820;8.682;2022-09-17T13:18:47;3.53;;;0.80;;
11024;SDS011;22890;51.820;8.682;2022-09-17T13:22:00;1.13;;;0.53;;
11024;SDS011;22890;51.820;8.682;2022-09-17T13:24:42;3.13;;;0.73;;
11024;SDS011;22890;51.820;8.682;2022-09-17T13:27:29;2.13;;;0.57;;
11024;SDS011;22890;51.820;8.682;2022-09-17T13:29:56;3.70;;;1.37;;
11024;SDS011;22890;51.820;8.682;2022-09-17T13:37:36;1.00;;;0.57;;
11024;SDS011;22890;51.820;8.682;2022-09-17T13:40:18;3.03;;;0.93;;
11024;SDS011;22890;51.820;8.682;2022-09-17T13:42:48;2.93;;;0.90;;
11024;SDS011;22890;51.820;8.682;2022-09-17T13:45:20;1.97;;;0.97;;
11024;SDS011;22890;51.820;8.682;2022-09-17T13:47:52;2.47;;;0.90;;
11024;SDS011;22890;51.820;8.682;2022-09-17T13:55:38;5.30;;;1.27;;
11024;SDS011;22890;51.820;8.682;2022-09-17T14:13:49;4.47;;;0.73;;
11024;SDS011;22890;51.820;8.682;2022-09-17T14:16:25;2.07;;;0.60;;
11024;SDS011;22890;51.820;8.682;2022-09-17T14:29:46;3.03;;;1.23;;
11024;SDS011;22890;51.820;8.682;2022-09-17T14:34:58;4.50;;;0.90;;
11024;SDS011;22890;51.820;8.682;2022-09-17T14:37:27;1.93;;;0.90;;
11024;SDS011;22890;51.820;8.682;2022-09-17T14:39:54;2.53;;;0.80;;
11024;SDS011;22890;51.820;8.682;2022-09-17T14:42:22;3.07;;;0.70;;
11024;SDS011;22890;51.820;8.682;2022-09-17T14:44:57;1.10;;;0.77;;
11024;SDS011;22890;51.820;8.682;2022-09-17T14:47:27;5.00;;;1.17;;
11024;SDS011;22890;51.820;8.682;2022-09-17T14:49:53;2.00;;;1.13;;
11024;SDS011;22890;51.820;8.682;2022-09-17T14:55:08;2.50;;;1.07;;
11024;SDS011;22890;51.820;8.682;2022-09-17T14:57:41;3.50;;;1.20;;
11024;SDS011;22890;51.820;8.682;2022-09-17T15:00:18;3.90;;;0.90;;
11024;SDS011;22890;51.820;8.682;2022-09-17T15:02:50;4.00;;;0.90;;
11024;SDS011;22890;51.820;8.682;2022-09-17T15:05:25;1.57;;;1.03;;
11024;SDS011;22890;51.820;8.682;2022-09-17T15:08:05;6.57;;;1.43;;
11024;SDS011;22890;51.820;8.682;2022-09-17T15:10:37;4.90;;;1.10;;
11024;SDS011;22890;51.820;8.682;2022-09-17T15:13:12;1.77;;;1.13;;
11024;SDS011;22890;51.820;8.682;2022-09-17T15:15:52;3.83;;;1.03;;
11024;SDS011;22890;51.820;8.682;2022-09-17T15:21:32;4.73;;;1.43;;
11024;SDS011;22890;51.820;8.682;2022-09-17T15:24:21;4.23;;;0.90;;
11024;SDS011;22890;51.820;8.682;2022-09-17T15:27:05;3.67;;;0.93;;
11024;SDS011;22890;51.820;8.682;2022-09-17T15:29:55;6.10;;;1.30;;
11024;SDS011;22890;51.820;8.682;2022-09-17T15:32:55;3.80;;;1.43;;
11024;SDS011;22890;51.820;8.682;2022-09-17T15:35:26;3.40;;;1.17;;
11024;SDS011;22890;51.820;8.682;2022-09-17T15:37:56;6.30;;;1.60;;
11024;SDS011;22890;51.820;8.682;2022-09-17T15:40:48;4.43;;;1.03;;
11024;SDS011;22890;51.820;8.682;2022-09-17T15:43:29;9.07;;;1.00;;
11024;SDS011;22890;51.820;8.682;2022-09-17T15:48:56;7.33;;;1.50;;
11024;SDS011;22890;51.820;8.682;2022-09-17T15:51:32;4.37;;;0.63;;
11024;SDS011;22890;51.820;8.682;2022-09-17T15:54:01;5.77;;;1.90;;
11024;SDS011;22890;51.820;8.682;2022-09-17T15:56:34;2.77;;;1.27;;
11024;SDS011;22890;51.820;8.682;2022-09-17T15:59:04;7.57;;;1.47;;
11024;SDS011;22890;51.820;8.682;2022-09-17T16:01:52;6.70;;;1.10;;
11024;SDS011;22890;51.820;8.682;2022-09-17T16:09:41;7.37;;;1.63;;
11024;SDS011;22890;51.820;8.682;2022-09-17T16:12:20;4.00;;;1.40;;
11024;SDS011;22890;51.820;8.682;2022-09-17T16:14:50;6.47;;;1.30;;
11024;SDS011;22890;51.820;8.682;2022-09-17T16:17:19;4.40;;;1.13;;
11024;SDS011;22890;51.820;8.682;2022-09-17T16:19:50;3.10;;;0.83;;
11024;SDS011;22890;51.820;8.682;2022-09-17T16:22:16;2.90;;;1.00;;
11024;SDS011;22890;51.820;8.682;2022-09-17T16:24:43;0.87;;;0.60;;
11024;SDS011;22890;51.820;8.682;2022-09-17T16:27:11;5.10;;;0.70;;
11024;SDS011;22890;51.820;8.682;2022-09-17T16:29:43;2.43;;;0.90;;
11024;SDS011;22890;51.820;8.682;2022-09-17T16:32:09;1.67;;;0.80;;
11024;SDS011;22890;51.820;8.682;2022-09-17T16:34:36;2.83;;;0.53;;
11024;SDS011;22890;51.820;8.682;2022-09-17T16:37:03;1.33;;;0.47;;
11024;SDS011;22890;51.820;8.682;2022-09-17T16:39:29;2.03;;;0.80;;
11024;SDS011;22890;51.820;8.682;2022-09-17T16:41:56;4.90;;;1.30;;
11024;SDS011;22890;51.820;8.682;2022-09-17T16:44:22;2.93;;;0.80;;
11024;SDS011;22890;51.820;8.682;2022-09-17T16:46:49;3.83;;;0.90;;
11024;SDS011;22890;51.820;8.682;2022-09-17T16:49:16;3.73;;;0.80;;
11024;SDS011;22890;51.820;8.682;2022-09-17T16:51:42;4.07;;;0.93;;
11024;SDS011;22890;51.820;8.682;2022-09-17T16:54:09;2.13;;;1.03;;
11024;SDS011;22890;51.820;8.682;2022-09-17T16:56:35;4.10;;;1.10;;
11024;SDS011;22890;51.820;8.682;2022-09-17T16:59:02;5.40;;;1.20;;
11024;SDS011;22890;51.820;8.682;2022-09-17T17:01:30;6.43;;;1.57;;
11024;SDS011;22890;51.820;8.682;2022-09-17T17:03:57;1.53;;;0.80;;
11024;SDS011;22890;51.820;8.682;2022-09-17T17:06:26;5.47;;;1.13;;
11024;SDS011;22890;51.820;8.682;2022-09-17T17:08:52;4.87;;;1.83;;
11024;SDS011;22890;51.820;8.682;2022-09-17T17:11:19;2.03;;;0.97;;
11024;SDS011;22890;51.820;8.682;2022-09-17T17:13:46;3.27;;;1.00;;
11024;SDS011;22890;51.820;8.682;2022-09-17T17:16:13;2.87;;;1.23;;
11024;SDS011;22890;51.820;8.682;2022-09-17T17:18:41;2.67;;;1.30;;
11024;SDS011;22890;51.820;8.682;2022-09-17T17:21:09;4.57;;;1.40;;
11024;SDS011;22890;51.820;8.682;2022-09-17T17:23:38;3.70;;;2.03;;
11024;SDS011;22890;51.820;8.682;2022-09-17T17:26:08;3.20;;;1.47;;
11024;SDS011;22890;51.820;8.682;2022-09-17T17:28:35;2.43;;;1.10;;
11024;SDS011;22890;51.820;8.682;2022-09-17T17:31:02;4.07;;;1.53;;
11024;SDS011;22890;51.820;8.682;2022-09-17T17:33:29;2.83;;;1.00;;
11024;SDS011;22890;51.820;8.682;2022-09-17T17:35:58;5.13;;;1.67;;
11024;SDS011;22890;51.820;8.682;2022-09-17T17:38:32;3.97;;;1.30;;
11024;SDS011;22890;51.820;8.682;2022-09-17T17:41:10;5.90;;;1.73;;
11024;SDS011;22890;51.820;8.682;2022-09-17T17:43:38;5.10;;;1.90;;
11024;SDS011;22890;51.820;8.682;2022-09-17T17:46:06;3.60;;;2.07;;
11024;SDS011;22890;51.820;8.682;2022-09-17T17:48:34;9.97;;;2.70;;
11024;SDS011;22890;51.820;8.682;2022-09-17T17:51:06;4.63;;;1.97;;
11024;SDS011;22890;51.820;8.682;2022-09-17T17:53:34;8.27;;;1.50;;
11024;SDS011;22890;51.820;8.682;2022-09-17T17:56:03;7.27;;;1.77;;
11024;SDS011;22890;51.820;8.682;2022-09-17T17:58:31;5.73;;;1.53;;
11024;SDS011;22890;51.820;8.682;2022-09-17T18:00:59;4.60;;;1.80;;
11024;SDS011;22890;51.820;8.682;2022-09-17T18:03:25;6.87;;;2.80;;
11024;SDS011;22890;51.820;8.682;2022-09-17T18:05:53;6.43;;;1.93;;
11024;SDS011;22890;51.820;8.682;2022-09-17T18:08:23;4.40;;;2.03;;
11024;SDS011;22890;51.820;8.682;2022-09-17T18:10:50;7.13;;;1.47;;
11024;SDS011;22890;51.820;8.682;2022-09-17T18:13:21;5.73;;;1.50;;
11024;SDS011;22890;51.820;8.682;2022-09-17T18:15:52;5.03;;;1.60;;
11024;SDS011;22890;51.820;8.682;2022-09-17T18:18:21;3.23;;;1.33;;
11024;SDS011;22890;51.820;8.682;2022-09-17T18:20:48;5.60;;;1.70;;
11024;SDS011;22890;51.820;8.682;2022-09-17T18:23:16;9.93;;;1.40;;
11024;SDS011;22890;51.820;8.682;2022-09-17T18:25:53;4.87;;;1.80;;
11024;SDS011;22890;51.820;8.682;2022-09-17T18:28:21;3.57;;;1.60;;
11024;SDS011;22890;51.820;8.682;2022-09-17T18:30:48;6.40;;;1.33;;
11024;SDS011;22890;51.820;8.682;2022-09-17T18:33:16;3.27;;;1.10;;
11024;SDS011;22890;51.820;8.682;2022-09-17T18:35:44;2.90;;;1.27;;
11024;SDS011;22890;51.820;8.682;2022-09-17T18:38:13;5.60;;;1.27;;
11024;SDS011;22890;51.820;8.682;2022-09-17T18:40:41;8.13;;;1.97;;
11024;SDS011;22890;51.820;8.682;2022-09-17T18:43:08;5.97;;;1.27;;